KJQF

Concord Regional Airport

Concord, North Carolina, USA
METAR KJQF 232153Z 21010KT 10SM SCT050 SCT065 26/12 A3033
Observed Flight Rules
Feb-23 @ 21:53 UTC (43 minutes ago) Visual Flight Rules
Wind Visibility Clouds
210° at 10 knots 10 miles
  • Scattered at 5,000' AGL
  • Scattered at 6,500' AGL
Temperatures Readings
Current 26°C / 79°F
Dewpoint 12°C / 54°F
Humidity 42%
Altimeter 30.33" Hg
Pressure 1027 hPa
Elevation 210
METAR KJQF 232153Z 21010KT 10SM SCT050 SCT065 26/12 A3033
Observed Flight Rules
Feb-23 @ 21:53 UTC
(43 minutes ago)
VFR
Wind Visibility
210° at 10 knots 10 miles
Clouds
  • Scattered at 5,000' AGL
  • Scattered at 6,500' AGL
Temperature Dewpoint
26°C / 79°F 12°C / 54°F
Humidity Altimeter Pressure
42% 30.33" Hg 1027 hPa